EW8430 Weather Reports


Display with metric or nautical units.
time (UTC)temp
F
wind
direction
speed
MPH
gust
MPH
rain 1hr
in
rain 24hr
in
rain mn
in
humidity
%
barometer
mb
20190916230019 71 148 2.0 8.0 0.00 0.13 0.13 56 1013.9
20190916224534 71 139 1.0 6.0 0.00 0.13 0.13 58 1013.8
20190916223011 72 300 2.0 8.0 0.00 0.13 0.13 54 1013.9
20190916221514 72 236 2.0 6.0 0.00 0.13 0.13 53 1014.0
20190916220011 71 203 1.0 7.0 0.00 0.13 0.13 53 1014.0
20190916214511 71 269 1.0 6.0 0.00 0.13 0.13 54 1014.1
20190916213008 71 208 2.0 7.0 0.00 0.13 0.13 54 1014.1
20190916211522 72 259 1.0 10.0 0.00 0.13 0.13 54 1014.0
20190916210004 71 258 2.0 8.0 0.00 0.13 0.13 54 1014.1
20190916204505 72 193 2.0 5.0 0.00 0.13 0.13 51 1014.1
20190916201710 71 271 2.0 9.0 0.00 0.13 0.13 54 1013.9
20190916200345 72 152 2.0 8.0 0.00 0.13 0.13 53 1013.7
20190916194615 72 223 1.0 7.0 0.00 0.13 0.13 54 1013.5
20190916193211 72 214 1.0 8.0 0.00 0.13 0.13 57 1013.4
20190916191613 70 224 2.0 7.0 0.00 0.13 0.13 59 1013.3
20190916190148 70 194 1.0 7.0 0.00 0.13 0.13 61 1013.4
20190916184612 69 158 1.0 8.0 0.00 0.13 0.13 62 1013.3
20190916183137 69 300 2.0 6.0 0.00 0.13 0.13 65 1013.3
20190916181615 68 278 1.0 9.0 0.00 0.13 0.13 67 1013.3
20190916180109 68 138 1.0 5.0 0.00 0.13 0.13 69 1013.2
20190916174556 67 274 1.0 5.0 0.00 0.13 0.13 74 1013.2
20190916173052 65 244 1.0 5.0 0.00 0.13 0.13 78 1013.1
20190916171538 64 262 1.0 6.0 0.00 0.13 0.13 81 1013.0
20190916170118 63 202 0.0 2.0 0.00 0.13 0.13 89 1012.8
20190916164659 61 92 0.0 1.0 0.01 0.13 0.13 92 1012.8
20190916163038 61 209 0.0 1.0 0.01 0.13 0.13 91 1012.6
20190916161542 60 204 0.0 2.0 0.01 0.13 0.13 92 1012.5
20190916160039 60 216 0.0 3.0 0.01 0.13 0.13 92 1012.4
20190916154612 60 193 0.0 1.0 0.01 0.12 0.12 92 1012.3
20190916153048 60 150 0.0 1.0 0.07 0.12 0.12 92 1012.2
20190916151522 60 105 0.0 2.0 0.11 0.12 0.12 92 1012.2
20190916150039 61 208 0.0 1.0 0.12 0.12 0.12 91 1012.2
20190916144529 61 233 0.0 3.0 0.11 0.11 0.11 91 1012.3
20190916143035 62 281 0.0 4.0 0.05 0.05 0.05 90 1011.9
20190916141526 63 300 0.0 5.0 0.01 0.01 0.01 87 1011.7
20190916140006 63 290 0.0 2.0 0.00 0.00 0.00 87 1011.3
20190916134507 63 287 0.0 2.0 0.00 0.00 0.00 89 1011.2
20190916133151 63 262 0.0 1.0 0.00 0.00 0.00 89 1011.0
20190916131652 64 288 0.0 3.0 0.00 0.00 0.00 89 1010.8
20190916130138 64 288 2.0 7.0 0.00 0.00 0.00 89 1010.7
20190916124923 64 282 0.0 0.0 0.00 0.00 0.00 92 1010.6
20190916123159 64 283 0.0 1.0 0.00 0.00 0.00 92 1010.5
20190916121704 65 207 0.0 1.0 0.00 0.00 0.00 91 1010.5
20190916120126 65 198 0.0 3.0 0.00 0.00 0.00 89 1010.4
20190916114617 65 192 0.0 1.0 0.00 0.00 0.00 88 1010.3
20190916113141 65 191 0.0 1.0 0.00 0.00 0.00 88 1010.1
20190916111633 65 172 0.0 1.0 0.00 0.00 0.00 88 1010.2
20190916110215 65 134 0.0 2.0 0.00 0.00 0.00 88 1010.1
20190916104616 65 141 0.0 1.0 0.00 0.00 0.00 89 1010.1
20190916103118 65 113 0.0 0.0 0.00 0.00 0.00 89 1010.0
20190916101635 64 172 0.0 0.0 0.00 0.00 0.00 90 1010.0
20190916100206 65 119 0.0 0.0 0.00 0.00 0.00 90 1010.1
20190916094550 65 120 0.0 1.0 0.00 0.00 0.00 90 1010.3
20190916093107 65 169 0.0 1.0 0.00 0.00 0.00 89 1010.4
20190916091636 65 167 0.0 1.0 0.00 0.00 0.00 88 1010.4
20190916090145 65 211 0.0 2.0 0.00 0.00 0.00 87 1010.5
20190916084627 65 178 0.0 3.0 0.00 0.00 0.00 87 1010.5
20190916083217 65 103 2.0 4.0 0.00 0.00 0.00 87 1010.4
20190916081635 65 136 0.0 3.0 0.00 0.00 0.00 85 1010.4
20190916080109 65 127 0.0 0.0 0.00 0.00 0.00 85 1010.5
20190916074623 65 113 0.0 4.0 0.00 0.00 0.00 85 1010.4
20190916073119 65 152 0.0 4.0 0.00 0.00 0.00 85 1010.4
20190916071553 65 202 0.0 2.0 0.00 0.00 0.00 86 1010.3
20190916070046 64 188 0.0 4.0 0.00 0.00 0.00 86 1010.4
20190916064549 64 210 0.0 2.0 0.00 0.00 0.00 86 1010.4
20190916063059 64 150 0.0 5.0 0.00 0.00 0.00 86 1010.3
20190916061606 64 196 0.0 4.0 0.00 0.00 0.00 85 1010.4
20190916060055 65 207 0.0 3.0 0.00 0.00 0.00 85 1010.4
20190916054534 65 203 0.0 2.0 0.00 0.00 0.00 85 1010.3
20190916053104 65 207 0.0 3.0 0.00 0.00 0.00 85 1010.3
20190916051530 65 207 0.0 1.0 0.00 0.00 0.00 85 1010.4
20190916050043 65 159 0.0 1.0 0.00 0.00 0.00 85 1010.3
20190916044626 65 150 0.0 3.0 0.00 0.00 0.00 85 1010.3
20190916043112 65 171 0.0 3.0 0.00 0.00 0.00 85 1010.5
20190916041553 65 137 0.0 3.0 0.00 0.00 0.00 85 1010.5
20190916040038 65 158 0.0 4.0 0.00 0.00 0.00 85 1010.4
20190916034530 65 156 0.0 2.0 0.00 0.00 0.00 84 1010.3
20190916033040 65 146 1.0 4.0 0.00 0.00 0.00 83 1010.3
20190916031538 65 134 0.0 4.0 0.00 0.00 0.00 82 1010.1
20190916030058 65 120 0.0 4.0 0.00 0.00 0.00 81 1010.0
20190916024524 66 121 1.0 5.0 0.00 0.00 0.00 79 1010.0
20190916023045 66 210 1.0 5.0 0.00 0.00 0.00 76 1009.9
20190916021523 67 149 1.0 4.0 0.00 0.00 0.00 73 1009.8
20190916020029 69 148 0.0 5.0 0.00 0.00 0.00 69 1009.7
20190916014552 71 199 0.0 4.0 0.00 0.00 0.00 64 1009.6
20190916013044 73 137 1.0 5.0 0.00 0.00 0.00 59 1009.5
20190916011521 74 212 1.0 4.0 0.00 0.00 0.00 57 1009.3
20190916010033 74 164 1.0 4.0 0.00 0.00 0.00 56 1009.2
20190916004636 74 198 1.0 5.0 0.00 0.00 0.00 55 1009.2
20190916003023 75 210 1.0 5.0 0.00 0.00 0.00 54 1009.2
20190916001542 75 209 2.0 6.0 0.00 0.00 0.00 53 1009.1
20190916000013 75 217 1.0 6.0 0.00 0.00 0.00 54 1009.0
20190915234515 75 139 1.0 7.0 0.00 0.00 0.00 53 1009.0
20190915233014 75 170 1.0 7.0 0.00 0.00 0.00 53 1009.0
20190915231510 75 169 1.0 6.0 0.00 0.00 0.00 53 1009.0